createdAt,value
2022-11-02T00:00:29.299Z,14.80
2022-11-02T00:02:56.461Z,14.80
2022-11-02T00:05:26.108Z,14.80
2022-11-02T00:07:54.542Z,14.70
2022-11-02T00:10:22.898Z,14.70
2022-11-02T00:12:50.657Z,14.60
2022-11-02T00:15:17.804Z,14.60
2022-11-02T00:17:48.783Z,14.70
2022-11-02T00:20:18.126Z,14.70
2022-11-02T00:22:46.959Z,14.70
2022-11-02T00:25:15.876Z,14.70
2022-11-02T00:27:43.231Z,14.70
2022-11-02T00:30:10.685Z,14.70
2022-11-02T00:32:37.635Z,14.80
2022-11-02T00:35:04.787Z,14.90
2022-11-02T00:39:58.833Z,14.80
2022-11-02T00:42:25.618Z,14.80
2022-11-02T00:44:52.391Z,14.80
2022-11-02T00:47:19.228Z,14.80
2022-11-02T00:49:46.007Z,14.90
2022-11-02T00:52:12.835Z,14.90
2022-11-02T00:54:39.793Z,14.90
2022-11-02T00:57:06.605Z,14.90
2022-11-02T00:59:33.429Z,14.90
2022-11-02T01:02:00.353Z,14.90
2022-11-02T01:04:27.288Z,14.90
2022-11-02T01:06:54.105Z,14.90
2022-11-02T01:09:21.806Z,14.90
2022-11-02T01:11:48.719Z,14.90
2022-11-02T01:14:15.586Z,15.00
2022-11-02T01:16:42.428Z,14.90
2022-11-02T01:19:09.360Z,14.90
2022-11-02T01:21:36.164Z,15.00
2022-11-02T01:24:03.092Z,15.00
2022-11-02T01:26:30.051Z,14.90
2022-11-02T01:28:56.961Z,15.00
2022-11-02T01:31:23.804Z,14.90
2022-11-02T01:33:50.827Z,14.90
2022-11-02T01:38:54.985Z,15.00
2022-11-02T01:41:22.212Z,15.00
2022-11-02T01:43:55.458Z,15.00
2022-11-02T01:46:26.367Z,15.00
2022-11-02T01:48:58.792Z,15.00
2022-11-02T01:51:36.523Z,15.00
2022-11-02T01:54:10.086Z,15.00
2022-11-02T01:56:40.216Z,15.00
2022-11-02T01:59:13.572Z,15.00
2022-11-02T02:01:40.688Z,15.00
2022-11-02T02:04:08.324Z,15.00
2022-11-02T02:06:35.287Z,15.00
2022-11-02T02:09:04.914Z,15.00
2022-11-02T02:11:37.504Z,15.00
2022-11-02T02:14:09.852Z,15.00
2022-11-02T02:16:55.137Z,15.00
2022-11-02T02:19:31.637Z,14.90
2022-11-02T02:22:13.577Z,14.90
2022-11-02T02:25:07.936Z,15.00
2022-11-02T02:27:50.087Z,14.90
2022-11-02T02:30:17.584Z,15.00
2022-11-02T02:33:06.792Z,15.00
2022-11-02T02:35:38.764Z,15.00
2022-11-02T02:38:11.032Z,15.00
2022-11-02T02:40:56.941Z,15.00
2022-11-02T02:43:49.253Z,15.00
2022-11-02T02:46:51.068Z,15.00
2022-11-02T02:49:25.814Z,15.00
2022-11-02T02:51:55.876Z,15.00
2022-11-02T02:54:30.701Z,15.00
2022-11-02T02:57:03.133Z,15.10
2022-11-02T02:59:34.094Z,15.00
2022-11-02T03:02:01.130Z,15.00
2022-11-02T03:04:28.047Z,15.00
2022-11-02T03:07:00.155Z,15.00
2022-11-02T03:09:52.054Z,15.10
2022-11-02T03:12:39.072Z,15.10
2022-11-02T03:15:29.072Z,15.10
2022-11-02T03:17:58.750Z,15.10
2022-11-02T03:20:58.042Z,15.10
2022-11-02T03:23:33.285Z,15.10
2022-11-02T03:26:09.130Z,15.10
2022-11-02T03:28:50.617Z,15.10
2022-11-02T03:31:35.735Z,15.10
2022-11-02T03:34:15.779Z,15.10
2022-11-02T03:36:54.262Z,15.10
2022-11-02T03:39:30.323Z,15.10
2022-11-02T03:42:00.981Z,15.10
2022-11-02T03:44:30.477Z,15.10
2022-11-02T03:47:00.287Z,15.10
2022-11-02T03:49:28.856Z,15.10
2022-11-02T03:51:59.291Z,15.10
2022-11-02T03:54:54.267Z,15.10
2022-11-02T03:57:27.462Z,15.20
2022-11-02T03:59:54.458Z,15.10
2022-11-02T04:02:21.480Z,15.20
2022-11-02T04:04:52.780Z,15.20
2022-11-02T04:07:26.486Z,15.20
2022-11-02T04:09:53.377Z,15.20
2022-11-02T04:12:38.735Z,15.20
2022-11-02T04:15:06.244Z,15.20
2022-11-02T04:17:51.673Z,15.20
2022-11-02T04:20:18.483Z,15.20
2022-11-02T04:23:04.124Z,15.20
2022-11-02T04:25:31.039Z,15.20
2022-11-02T04:28:07.766Z,15.20
2022-11-02T04:30:34.703Z,15.30
2022-11-02T04:33:19.982Z,15.30
2022-11-02T04:35:46.845Z,15.30
2022-11-02T04:38:32.106Z,15.30
2022-11-02T04:41:19.040Z,15.30
2022-11-02T04:43:45.832Z,15.30
2022-11-02T04:46:12.617Z,15.30
2022-11-02T04:48:39.492Z,15.30
2022-11-02T04:51:06.467Z,15.30
2022-11-02T04:53:33.421Z,15.30
2022-11-02T04:56:00.224Z,15.40
2022-11-02T04:58:27.162Z,15.40
2022-11-02T05:00:54.022Z,15.40
2022-11-02T05:03:20.852Z,15.40
2022-11-02T05:05:47.635Z,15.40
2022-11-02T05:08:14.487Z,15.40
2022-11-02T05:10:41.253Z,15.40
2022-11-02T05:13:10.134Z,15.40
2022-11-02T05:15:39.407Z,15.40
2022-11-02T05:18:06.669Z,15.40
2022-11-02T05:20:33.982Z,15.40
2022-11-02T05:23:00.773Z,15.30
2022-11-02T05:25:27.566Z,15.30
2022-11-02T05:27:57.385Z,15.40
2022-11-02T05:30:24.436Z,15.40
2022-11-02T05:32:55.263Z,15.40
2022-11-02T05:35:22.343Z,15.40
2022-11-02T05:37:49.180Z,15.40
2022-11-02T05:40:16.260Z,15.40
2022-11-02T05:42:43.048Z,15.40
2022-11-02T05:45:10.240Z,15.40
2022-11-02T05:47:37.038Z,15.50
2022-11-02T05:50:04.254Z,15.40
2022-11-02T05:52:31.169Z,15.40
2022-11-02T05:54:57.959Z,15.50
2022-11-02T05:57:24.800Z,15.50
2022-11-02T05:59:51.615Z,15.50
2022-11-02T06:02:20.857Z,15.50
2022-11-02T06:04:50.199Z,15.40
2022-11-02T06:07:17.173Z,15.40
2022-11-02T06:09:44.002Z,15.40
2022-11-02T06:12:10.805Z,15.40
2022-11-02T06:14:37.734Z,15.40
2022-11-02T06:17:04.523Z,15.40
2022-11-02T06:19:31.314Z,15.40
2022-11-02T06:21:58.140Z,15.50
2022-11-02T06:24:24.986Z,15.50
2022-11-02T06:26:52.209Z,15.40
2022-11-02T06:29:19.096Z,15.40
2022-11-02T06:31:45.903Z,15.50
2022-11-02T06:34:12.760Z,15.50
2022-11-02T06:36:39.591Z,15.40
2022-11-02T06:39:06.466Z,15.40
2022-11-02T06:41:33.247Z,15.40
2022-11-02T06:44:00.122Z,15.50
2022-11-02T06:46:27.001Z,15.50
2022-11-02T06:48:53.813Z,15.50
2022-11-02T06:51:20.634Z,15.40
2022-11-02T06:53:47.459Z,15.40
2022-11-02T06:56:15.074Z,15.40
2022-11-02T06:58:41.881Z,15.50
2022-11-02T07:01:09.237Z,15.40
2022-11-02T07:03:36.748Z,15.40
2022-11-02T07:06:03.590Z,15.40
2022-11-02T07:08:30.453Z,15.30
2022-11-02T07:10:58.197Z,15.30
2022-11-02T07:13:25.038Z,15.40
2022-11-02T07:15:53.478Z,15.40
2022-11-02T07:18:20.652Z,15.40
2022-11-02T07:20:47.487Z,15.50
2022-11-02T07:23:14.300Z,15.50
2022-11-02T07:25:41.669Z,15.50
2022-11-02T07:28:08.508Z,15.50
2022-11-02T07:30:35.561Z,15.50
2022-11-02T07:33:02.959Z,15.60
2022-11-02T07:35:30.205Z,15.60
2022-11-02T07:37:58.881Z,15.60
2022-11-02T07:40:27.045Z,15.60
2022-11-02T07:42:54.131Z,15.60
2022-11-02T07:45:22.316Z,15.60
2022-11-02T07:47:50.021Z,15.60
2022-11-02T07:50:22.764Z,15.70
2022-11-02T07:52:52.147Z,15.70
2022-11-02T07:55:24.580Z,15.80
2022-11-02T07:58:01.483Z,15.90
2022-11-02T08:00:31.355Z,15.90
2022-11-02T08:03:00.156Z,15.90
2022-11-02T08:05:29.104Z,15.90
2022-11-02T08:08:00.340Z,15.90
2022-11-02T08:10:28.946Z,15.90
2022-11-02T08:12:56.351Z,15.90
2022-11-02T08:15:23.482Z,15.90
2022-11-02T08:18:04.727Z,16.00
2022-11-02T08:20:32.682Z,16.00
2022-11-02T08:22:59.751Z,16.00
2022-11-02T08:25:26.831Z,16.00
2022-11-02T08:27:59.760Z,16.00
2022-11-02T08:30:31.052Z,16.10
2022-11-02T08:33:06.187Z,16.10
2022-11-02T08:35:33.617Z,16.20
2022-11-02T08:38:00.448Z,16.20
2022-11-02T08:40:27.512Z,16.20
2022-11-02T08:42:58.866Z,16.20
2022-11-02T08:45:26.851Z,16.20
2022-11-02T08:47:54.536Z,16.30
2022-11-02T08:50:22.058Z,16.30
2022-11-02T08:52:48.977Z,16.30
2022-11-02T08:55:15.983Z,16.30
2022-11-02T08:57:54.155Z,16.30
2022-11-02T09:00:24.045Z,16.40
2022-11-02T09:03:07.917Z,16.40
2022-11-02T09:05:45.914Z,16.40
2022-11-02T09:08:21.187Z,16.40
2022-11-02T09:10:51.169Z,16.40
2022-11-02T09:13:22.100Z,16.40
2022-11-02T09:15:55.122Z,16.40
2022-11-02T09:18:23.019Z,16.50
2022-11-02T09:20:51.280Z,16.50
2022-11-02T09:23:19.819Z,16.40
2022-11-02T09:25:46.938Z,16.40
2022-11-02T09:28:15.510Z,16.40
2022-11-02T09:30:42.818Z,16.40
2022-11-02T09:33:10.658Z,16.40
2022-11-02T09:35:40.329Z,16.50
2022-11-02T09:38:07.767Z,16.50
2022-11-02T09:40:38.702Z,16.60
2022-11-02T09:43:09.118Z,16.60
2022-11-02T09:45:58.165Z,16.60
2022-11-02T09:48:32.228Z,16.70
2022-11-02T09:51:33.742Z,16.70
2022-11-02T09:54:23.833Z,16.70
2022-11-02T09:56:52.473Z,16.60
2022-11-02T09:59:21.839Z,16.60
2022-11-02T10:01:55.853Z,16.60
2022-11-02T10:04:41.671Z,16.60
2022-11-02T10:07:46.063Z,16.60
2022-11-02T10:10:26.901Z,16.70
2022-11-02T10:13:16.939Z,16.60
2022-11-02T10:15:55.305Z,16.70
2022-11-02T10:18:30.315Z,16.70
2022-11-02T10:21:06.407Z,16.70
2022-11-02T10:23:39.942Z,16.80
2022-11-02T10:26:12.797Z,16.80
2022-11-02T10:28:48.807Z,16.80
2022-11-02T10:31:27.264Z,16.80
2022-11-02T10:33:58.124Z,16.80
2022-11-02T10:36:37.122Z,16.80
2022-11-02T10:39:21.192Z,16.80
2022-11-02T10:42:00.469Z,16.80
2022-11-02T10:44:33.522Z,16.80
2022-11-02T10:47:17.796Z,16.90
2022-11-02T10:50:09.457Z,16.90
2022-11-02T10:52:41.269Z,16.90
2022-11-02T10:55:34.443Z,16.90
2022-11-02T10:58:06.902Z,16.80
2022-11-02T11:00:36.298Z,16.80
2022-11-02T11:03:10.369Z,16.80
2022-11-02T11:06:02.235Z,16.90
2022-11-02T11:08:42.691Z,16.90
2022-11-02T11:11:33.041Z,16.90
2022-11-02T11:16:55.412Z,17.00
2022-11-02T11:19:40.679Z,16.90
2022-11-02T11:22:40.908Z,16.90
2022-11-02T11:25:27.071Z,17.00
2022-11-02T11:27:56.700Z,17.00
2022-11-02T11:30:58.879Z,16.90
2022-11-02T11:33:23.542Z,16.90
2022-11-02T11:35:51.906Z,16.90
2022-11-02T11:38:23.432Z,16.90
2022-11-02T11:40:54.754Z,16.90
2022-11-02T11:43:25.417Z,16.90
2022-11-02T11:46:05.928Z,16.90
2022-11-02T11:48:41.047Z,17.00
2022-11-02T11:51:35.225Z,17.00
2022-11-02T11:54:26.954Z,17.00
2022-11-02T11:57:13.928Z,17.00
2022-11-02T11:59:43.683Z,17.00
2022-11-02T12:02:28.006Z,17.00
2022-11-02T12:05:13.788Z,17.00
2022-11-02T12:08:00.926Z,17.00
2022-11-02T12:10:37.302Z,17.00
2022-11-02T12:13:27.589Z,17.00
2022-11-02T12:16:18.707Z,17.00
2022-11-02T12:18:57.248Z,17.00
2022-11-02T12:21:44.194Z,17.00
2022-11-02T12:24:17.591Z,17.00
2022-11-02T12:26:47.123Z,17.10
2022-11-02T12:29:43.127Z,17.10
2022-11-02T12:32:48.761Z,17.20
2022-11-02T12:35:29.258Z,17.10
2022-11-02T12:38:12.140Z,17.10
2022-11-02T12:40:48.037Z,17.10
2022-11-02T12:43:27.133Z,17.00
2022-11-02T12:46:01.693Z,17.10
2022-11-02T12:48:51.430Z,17.00
2022-11-02T12:51:23.797Z,17.00
2022-11-02T12:54:05.090Z,17.10
2022-11-02T12:56:37.581Z,17.10
2022-11-02T12:59:04.857Z,17.10
2022-11-02T13:01:41.050Z,17.10
2022-11-02T13:04:19.751Z,17.10
2022-11-02T13:06:52.281Z,17.10
2022-11-02T13:09:26.214Z,17.10
2022-11-02T13:12:15.512Z,17.20
2022-11-02T13:14:52.985Z,17.20
2022-11-02T13:17:40.716Z,17.20
2022-11-02T13:20:23.655Z,17.20
2022-11-02T13:23:26.485Z,17.20
2022-11-02T13:26:33.828Z,17.30
2022-11-02T13:29:27.087Z,17.30
2022-11-02T13:32:10.770Z,17.20
2022-11-02T13:34:43.463Z,17.20
2022-11-02T13:37:15.904Z,17.20
2022-11-02T13:39:49.010Z,17.20
2022-11-02T13:42:18.529Z,17.20
2022-11-02T13:45:11.321Z,17.20
2022-11-02T13:48:20.204Z,17.20
2022-11-02T13:50:51.185Z,17.20
2022-11-02T13:53:30.750Z,17.20
2022-11-02T13:56:08.316Z,17.20
2022-11-02T13:58:47.130Z,17.20
2022-11-02T14:01:18.131Z,17.20
2022-11-02T14:04:10.530Z,17.20
2022-11-02T14:06:52.758Z,17.20
2022-11-02T14:09:31.068Z,17.20
2022-11-02T14:12:40.218Z,17.20
2022-11-02T14:15:13.065Z,17.10
2022-11-02T14:17:55.174Z,17.10
2022-11-02T14:20:44.186Z,17.10
2022-11-02T14:23:14.621Z,17.00
2022-11-02T14:25:53.264Z,17.00
2022-11-02T14:28:22.940Z,17.00
2022-11-02T14:31:02.157Z,17.00
2022-11-02T14:33:43.718Z,17.00
2022-11-02T14:36:19.607Z,17.00
2022-11-02T14:38:58.606Z,16.90
2022-11-02T14:41:51.880Z,16.90
2022-11-02T14:44:42.499Z,16.90
2022-11-02T14:47:16.445Z,16.80
2022-11-02T14:49:56.944Z,16.80
2022-11-02T14:52:32.152Z,16.80
2022-11-02T14:55:01.869Z,16.70
2022-11-02T14:57:38.781Z,16.70
2022-11-02T15:00:22.266Z,16.70
2022-11-02T15:02:50.427Z,16.60
2022-11-02T15:05:43.476Z,16.60
2022-11-02T15:08:26.712Z,16.60
2022-11-02T15:10:53.677Z,16.60
2022-11-02T15:13:20.635Z,16.60
2022-11-02T15:15:50.609Z,16.50
2022-11-02T15:18:23.396Z,16.50
2022-11-02T15:21:15.604Z,16.50
2022-11-02T15:24:02.956Z,16.50
2022-11-02T15:26:50.228Z,16.50
2022-11-02T15:29:31.860Z,16.40
2022-11-02T15:31:59.818Z,16.40
2022-11-02T15:34:49.331Z,16.40
2022-11-02T15:37:50.318Z,16.40
2022-11-02T15:40:27.665Z,16.30
2022-11-02T15:43:16.327Z,16.30
2022-11-02T15:46:13.890Z,16.20
2022-11-02T15:48:43.914Z,16.20
2022-11-02T15:51:29.580Z,16.10
2022-11-02T15:53:59.268Z,16.10
2022-11-02T15:56:31.995Z,16.00
2022-11-02T15:59:19.944Z,16.00
2022-11-02T16:01:49.748Z,15.90
2022-11-02T16:04:21.462Z,15.80
2022-11-02T16:06:49.619Z,15.80
2022-11-02T16:09:35.108Z,15.80
2022-11-02T16:12:25.153Z,15.80
2022-11-02T16:14:59.371Z,15.70
2022-11-02T16:17:31.049Z,15.60
2022-11-02T16:20:15.801Z,15.60
2022-11-02T16:22:49.013Z,15.50
2022-11-02T16:25:21.875Z,15.50
2022-11-02T16:27:49.188Z,15.40
2022-11-02T16:30:23.265Z,15.30
2022-11-02T16:32:58.609Z,15.30
2022-11-02T16:35:27.110Z,15.30
2022-11-02T16:37:54.022Z,15.20
2022-11-02T16:40:21.399Z,15.20
2022-11-02T16:42:51.667Z,15.20
2022-11-02T16:45:42.077Z,15.20
2022-11-02T16:48:25.269Z,15.10
2022-11-02T16:51:18.602Z,15.10
2022-11-02T16:53:45.875Z,15.10
2022-11-02T16:56:28.013Z,15.00
2022-11-02T16:58:59.966Z,15.00
2022-11-02T17:01:29.962Z,15.00
2022-11-02T17:03:56.983Z,15.00
2022-11-02T17:06:23.917Z,15.00
2022-11-02T17:08:55.584Z,14.90
2022-11-02T17:11:23.285Z,14.90
2022-11-02T17:13:56.568Z,14.80
2022-11-02T17:16:23.362Z,14.80
2022-11-02T17:18:50.173Z,14.80
2022-11-02T17:21:24.145Z,14.80
2022-11-02T17:23:51.487Z,14.80
2022-11-02T17:26:26.411Z,14.80
2022-11-02T17:28:56.170Z,14.90
2022-11-02T17:31:30.328Z,14.90
2022-11-02T17:34:00.909Z,14.90
2022-11-02T17:36:28.662Z,15.00
2022-11-02T17:38:55.892Z,15.00
2022-11-02T17:41:46.246Z,15.00
2022-11-02T17:44:17.483Z,15.00
2022-11-02T17:46:46.053Z,15.00
2022-11-02T17:49:13.396Z,15.00
2022-11-02T17:51:40.684Z,15.00
2022-11-02T17:54:09.200Z,15.00
2022-11-02T17:56:35.984Z,15.00
2022-11-02T17:59:02.734Z,15.00
2022-11-02T18:01:29.777Z,15.00
2022-11-02T18:03:56.689Z,15.00
2022-11-02T18:06:23.676Z,15.00
2022-11-02T18:09:09.116Z,15.00
2022-11-02T18:11:35.895Z,15.00
2022-11-02T18:14:03.453Z,15.00
2022-11-02T18:16:30.695Z,15.00
2022-11-02T18:18:57.525Z,15.00
2022-11-02T18:21:24.338Z,14.90
2022-11-02T18:23:51.130Z,14.90
2022-11-02T18:26:17.910Z,14.90
2022-11-02T18:28:44.824Z,14.90
2022-11-02T18:31:11.862Z,15.00
2022-11-02T18:33:38.751Z,15.00
2022-11-02T18:36:07.868Z,15.00
2022-11-02T18:38:35.516Z,15.00
2022-11-02T18:41:29.678Z,15.00
2022-11-02T18:44:05.617Z,15.00
2022-11-02T18:46:34.802Z,15.00
2022-11-02T18:49:02.059Z,15.00
2022-11-02T18:51:29.175Z,15.00
2022-11-02T18:54:04.944Z,15.00
2022-11-02T18:56:31.978Z,15.00
2022-11-02T18:58:58.979Z,15.10
2022-11-02T19:01:26.238Z,15.10
2022-11-02T19:03:58.897Z,15.10
2022-11-02T19:06:47.632Z,15.10
2022-11-02T19:09:19.389Z,15.20
2022-11-02T19:11:50.582Z,15.20
2022-11-02T19:14:18.653Z,15.20
2022-11-02T19:16:45.428Z,15.20
2022-11-02T19:19:12.320Z,15.30
2022-11-02T19:21:39.323Z,15.30
2022-11-02T19:24:06.399Z,15.30
2022-11-02T19:26:34.529Z,15.30
2022-11-02T19:29:05.039Z,15.30
2022-11-02T19:31:34.808Z,15.40
2022-11-02T19:34:01.838Z,15.40
2022-11-02T19:36:28.781Z,15.40
2022-11-02T19:38:55.675Z,15.40
2022-11-02T19:41:24.005Z,15.40
2022-11-02T19:43:51.110Z,15.40
2022-11-02T19:46:20.866Z,15.40
2022-11-02T19:48:48.574Z,15.40
2022-11-02T19:51:19.053Z,15.40
2022-11-02T19:53:50.834Z,15.40
2022-11-02T19:56:18.945Z,15.40
2022-11-02T19:58:47.881Z,15.40
2022-11-02T20:01:17.533Z,15.40
2022-11-02T20:03:46.226Z,15.40
2022-11-02T20:06:16.065Z,15.40
2022-11-02T20:08:42.870Z,15.40
2022-11-02T20:11:12.933Z,15.40
2022-11-02T20:13:42.200Z,15.40
2022-11-02T20:16:11.078Z,15.40
2022-11-02T20:18:39.799Z,15.40
2022-11-02T20:21:34.545Z,15.40
2022-11-02T20:24:02.438Z,15.40
2022-11-02T20:26:32.696Z,15.40
2022-11-02T20:29:01.363Z,15.40
2022-11-02T20:31:32.825Z,15.40
2022-11-02T20:34:00.829Z,15.40
2022-11-02T20:36:28.056Z,15.40
2022-11-02T20:38:56.345Z,15.50
2022-11-02T20:41:24.370Z,15.50
2022-11-02T20:43:54.816Z,15.50
2022-11-02T20:46:43.767Z,15.50
2022-11-02T20:49:22.379Z,15.40
2022-11-02T20:51:56.528Z,15.40
2022-11-02T20:54:23.934Z,15.40
2022-11-02T20:56:51.697Z,15.30
2022-11-02T20:59:18.469Z,15.30
2022-11-02T21:01:45.646Z,15.30
2022-11-02T21:04:18.614Z,15.30
2022-11-02T21:06:48.008Z,15.40
2022-11-02T21:09:14.897Z,15.40
2022-11-02T21:12:00.397Z,15.40
2022-11-02T21:14:27.174Z,15.30
2022-11-02T21:16:53.957Z,15.40
2022-11-02T21:19:21.402Z,15.40
2022-11-02T21:21:48.157Z,15.40
2022-11-02T21:24:14.885Z,15.40
2022-11-02T21:26:41.672Z,15.40
2022-11-02T21:29:09.726Z,15.40
2022-11-02T21:31:36.930Z,15.40
2022-11-02T21:34:03.727Z,15.40
2022-11-02T21:36:30.525Z,15.40
2022-11-02T21:38:58.823Z,15.40
2022-11-02T21:41:28.159Z,15.30
2022-11-02T21:43:55.673Z,15.30
2022-11-02T21:46:24.213Z,15.30
2022-11-02T21:48:51.111Z,15.30
2022-11-02T21:51:19.881Z,15.20
2022-11-02T21:53:47.592Z,15.20
2022-11-02T21:56:17.458Z,15.10
2022-11-02T21:58:46.400Z,15.10
2022-11-02T22:01:35.246Z,15.10
2022-11-02T22:04:02.479Z,15.10
2022-11-02T22:06:31.600Z,15.00
2022-11-02T22:08:59.726Z,15.00
2022-11-02T22:11:27.489Z,14.90
2022-11-02T22:13:56.299Z,14.90
2022-11-02T22:16:25.916Z,14.90
2022-11-02T22:18:57.955Z,14.80
2022-11-02T22:21:26.744Z,14.80
2022-11-02T22:23:53.910Z,14.80
2022-11-02T22:26:23.304Z,14.80
2022-11-02T22:28:50.872Z,14.80
2022-11-02T22:31:22.958Z,14.70
2022-11-02T22:33:52.060Z,14.70
2022-11-02T22:36:22.123Z,14.70
2022-11-02T22:38:51.535Z,14.70
2022-11-02T22:41:21.341Z,14.70
2022-11-02T22:43:50.041Z,14.70
2022-11-02T22:46:17.028Z,14.70
2022-11-02T22:48:43.944Z,14.70
2022-11-02T22:51:11.695Z,14.70
2022-11-02T22:53:38.776Z,14.70
2022-11-02T22:56:13.697Z,14.70
2022-11-02T22:58:45.528Z,14.80
2022-11-02T23:01:16.479Z,14.80
2022-11-02T23:03:43.590Z,14.80
2022-11-02T23:06:10.694Z,14.80
2022-11-02T23:08:39.953Z,14.80
2022-11-02T23:11:23.523Z,14.80
2022-11-02T23:14:08.535Z,14.80
2022-11-02T23:16:40.318Z,14.80
2022-11-02T23:19:31.346Z,14.70
2022-11-02T23:22:17.475Z,14.70
2022-11-02T23:25:15.220Z,14.70
2022-11-02T23:28:06.267Z,14.70
2022-11-02T23:30:56.178Z,14.50
2022-11-02T23:33:27.613Z,14.50
2022-11-02T23:36:13.150Z,14.50
2022-11-02T23:39:05.960Z,14.50
2022-11-02T23:41:35.198Z,14.40
2022-11-02T23:44:12.042Z,14.40
2022-11-02T23:46:42.599Z,14.40
2022-11-02T23:49:09.396Z,14.40
2022-11-02T23:51:54.611Z,14.40
2022-11-02T23:54:40.024Z,14.40
2022-11-02T23:57:07.088Z,14.40
2022-11-02T23:59:33.873Z,14.30
